Capitol Logistics 1172


EETN
Tallinn Airport
Tallinn, EE
EBLG
Liège Airport
Liege, BE

Route Details

Aircraft Information
Primary: Boeing 767-300BDSF
Backup: Not Available
Route Data
Distance: 856nm
Sched. Duration: 2h 00m
Avg. Duration: 2h 49m (+49m)
Times Flown: 10
Recm'd Route: TLL Q11 PIMEX P739 KOLJA M864 BUMIL OSB
Planned Altitude: 36,000ft
Origin Wx: EETN 271720Z 20007KT 8000 -RA SCT005 SCT014 BKN038 12/11 Q1006 R08/290195 TEMPO 3000 RA
Dest. Wx: EBLG 271720Z 19019G29KT 9999 SCT036 10/06 Q1003 NOSIG
Notes:

Financial History
Total Freight: 985,790lbs
Average Load: 98,579lbs/flt
Fuel Used: 288,908lbs
Avg. Fuel Used: 28,891lbs/flt
Fuel Expense: $231,126
Avg. Fuel Expense: $23,113
Avg. Fuel Cost: $0.80/lbs
Total Gross Income: $1,469,573
Pilot Pay: $1,980
Total Expenses: $153,351
Total Revenue: $1,078,957
Average Revenue: $146,957.32